Time;durP1;ratioP1;P1;durP2;ratioP2;P2;SDS_P1;SDS_P2;PMS_P1;PMS_P2;Temp;Humidity;BMP_temperature;BMP_pressure;BME280_temperature;BME280_humidity;BME280_pressure;Samples;Min_cycle;Max_cycle;Signal;HPM_P1;HPM_P2
2021/01/21 00:01:57;;;;;;;174.68;73.00;;;;;;;-14.50;71.63;101229.08;1785968;80;21184;-77
2021/01/21 00:05:02;;;;;;;177.30;71.70;;;;;;;-14.60;72.08;101231.25;1785774;80;21172;-77
2021/01/21 00:08:08;;;;;;;188.57;82.35;;;;;;;-14.69;72.56;101222.90;1785711;80;21841;-77
2021/01/21 00:11:14;;;;;;;195.20;82.12;;;;;;;-14.70;72.91;101224.66;1785903;80;21268;-78
2021/01/21 00:14:18;;;;;;;166.43;65.15;;;;;;;-14.70;73.09;101216.77;1785811;80;21781;-77
2021/01/21 00:17:24;;;;;;;163.18;60.43;;;;;;;-14.75;72.99;101225.08;1785666;80;21867;-78
2021/01/21 00:20:31;;;;;;;177.25;64.82;;;;;;;-14.82;72.98;101215.41;1785592;80;21834;-78
2021/01/21 00:23:36;;;;;;;190.75;65.10;;;;;;;-14.95;72.98;101214.97;1785860;80;21326;-77
2021/01/21 00:26:41;;;;;;;170.55;57.65;;;;;;;-15.09;73.08;101224.54;1785790;80;21161;-77
2021/01/21 00:29:47;;;;;;;174.45;62.78;;;;;;;-15.22;73.15;101216.59;1785778;80;21161;-77
2021/01/21 00:32:53;;;;;;;155.90;59.83;;;;;;;-15.31;73.12;101217.87;1785389;80;21316;-77
2021/01/21 00:36:00;;;;;;;171.57;65.52;;;;;;;-15.37;73.09;101231.41;1785596;80;21283;-78
2021/01/21 00:39:06;;;;;;;150.10;56.85;;;;;;;-15.47;73.14;101235.28;1785856;80;22061;-77
2021/01/21 00:42:11;;;;;;;168.28;61.42;;;;;;;-15.48;73.22;101233.54;1785693;80;21201;-78
2021/01/21 00:45:17;;;;;;;161.88;66.07;;;;;;;-15.52;73.20;101231.77;1785781;80;21698;-77
2021/01/21 00:48:23;;;;;;;181.47;71.22;;;;;;;-15.61;73.22;101225.59;1785743;80;21303;-78
2021/01/21 00:51:28;;;;;;;187.85;75.45;;;;;;;-15.63;73.39;101216.84;1785825;80;21205;-78
2021/01/21 00:54:34;;;;;;;185.57;69.72;;;;;;;-15.61;73.70;101211.16;1785819;80;21443;-77
2021/01/21 00:57:40;;;;;;;167.53;68.02;;;;;;;-15.55;73.93;101217.74;1785788;80;21854;-77
2021/01/21 01:00:46;;;;;;;204.47;79.87;;;;;;;-15.41;74.20;101221.76;1785835;80;21269;-77
2021/01/21 01:03:53;;;;;;;179.47;70.45;;;;;;;-15.30;74.31;101217.43;1784988;80;21283;-77
2021/01/21 01:07:01;;;;;;;219.77;86.47;;;;;;;-15.18;74.39;101217.94;1785709;80;21153;-77
2021/01/21 01:10:07;;;;;;;188.50;72.82;;;;;;;-15.07;74.36;101225.41;1785826;80;21272;-77
2021/01/21 01:13:12;;;;;;;209.43;83.55;;;;;;;-14.97;74.23;101227.19;1785156;80;21684;-77
2021/01/21 01:16:19;;;;;;;220.20;81.92;;;;;;;-14.86;74.24;101229.87;1785695;80;21161;-77
2021/01/21 01:19:27;;;;;;;242.80;91.02;;;;;;;-14.65;74.37;101231.67;1785855;80;21268;-78
2021/01/21 01:22:19;;;;;;;204.63;79.90;;;;;;;-14.46;74.25;101232.98;1786000;80;21343;-78
2021/01/21 01:25:24;;;;;;;190.38;76.37;;;;;;;-14.24;74.13;101223.83;1785805;80;21811;-77
2021/01/21 01:28:29;;;;;;;195.32;76.35;;;;;;;-14.01;73.81;101222.53;1785832;80;21184;-77
2021/01/21 01:31:33;;;;;;;168.75;65.08;;;;;;;-13.88;73.30;101218.98;1785962;80;21161;-78
2021/01/21 01:34:38;;;;;;;186.62;73.50;;;;;;;-13.77;72.80;101214.61;1785849;80;21839;-78
2021/01/21 01:37:45;;;;;;;318.57;96.00;;;;;;;-13.70;72.62;101207.58;1785722;80;21224;-78
2021/01/21 01:40:51;;;;;;;339.08;94.62;;;;;;;-13.67;72.04;101204.50;1785623;80;21188;-77
2021/01/21 01:43:57;;;;;;;278.73;82.80;;;;;;;-13.79;71.53;101196.62;1784647;80;21834;-78
2021/01/21 01:47:02;;;;;;;175.72;67.78;;;;;;;-13.94;71.76;101205.85;1785734;80;21157;-78
2021/01/21 01:50:09;;;;;;;186.22;71.90;;;;;;;-14.02;72.21;101199.30;1785652;80;21153;-78
2021/01/21 01:53:14;;;;;;;174.20;65.92;;;;;;;-14.07;72.62;101195.77;1785659;80;21192;-77
2021/01/21 01:56:22;;;;;;;140.70;57.75;;;;;;;-14.04;73.03;101199.72;1785757;80;21153;-78
2021/01/21 01:59:29;;;;;;;181.43;66.65;;;;;;;-13.92;73.35;101193.16;1785665;80;21212;-78
2021/01/21 02:02:34;;;;;;;208.67;79.03;;;;;;;-13.86;73.46;101181.74;1785798;80;21319;-77
2021/01/21 02:05:40;;;;;;;178.68;71.07;;;;;;;-13.84;73.76;101210.22;1784436;80;21283;-78
2021/01/21 02:08:47;;;;;;;194.07;67.85;;;;;;;-13.68;74.21;101196.19;1785679;80;21246;-78
2021/01/21 02:12:23;;;;;;;200.47;67.20;;;;;;;-13.49;74.25;101193.52;1785765;80;21165;-78
2021/01/21 02:15:58;;;;;;;160.15;62.25;;;;;;;-13.47;74.18;101194.38;1785689;80;21161;-78
2021/01/21 02:19:33;;;;;;;198.60;66.53;;;;;;;-13.39;74.44;101194.36;1784389;80;21912;-78
2021/01/21 02:23:29;;;;;;;160.72;55.90;;;;;;;-13.27;74.57;101188.59;1784101;80;21275;-78
2021/01/21 02:26:59;;;;;;;206.68;67.70;;;;;;;-13.13;74.53;101188.50;1785608;80;21204;-78
2021/01/21 02:30:04;;;;;;;150.45;58.45;;;;;;;-13.10;74.58;101185.00;1785615;80;21215;-78
2021/01/21 02:33:35;;;;;;;129.42;49.83;;;;;;;-13.03;74.77;101188.92;1783936;80;21275;-78
2021/01/21 02:36:47;;;;;;;154.10;56.50;;;;;;;-12.85;74.93;101195.83;1785017;80;21750;-77
2021/01/21 02:40:00;;;;;;;136.82;52.25;;;;;;;-12.70;74.93;101194.88;1768871;80;21181;-77
2021/01/21 02:43:10;;;;;;;150.35;57.20;;;;;;;-12.59;75.01;101197.47;1781990;80;21188;-78
2021/01/21 02:46:16;;;;;;;125.45;48.75;;;;;;;-12.52;75.22;101187.30;1785575;80;21734;-78
2021/01/21 02:49:22;;;;;;;134.03;52.27;;;;;;;-12.40;75.55;101186.78;1785843;80;21216;-78
2021/01/21 02:52:47;;;;;;;113.88;41.90;;;;;;;-12.29;75.78;101193.28;1785769;80;21811;-78
2021/01/21 02:56:09;;;;;;;117.75;46.00;;;;;;;-12.12;75.88;101187.89;1785882;80;21734;-78
2021/01/21 02:59:17;;;;;;;108.10;42.15;;;;;;;-11.97;76.00;101179.84;1785718;80;21302;-78
2021/01/21 03:02:25;;;;;;;94.60;38.90;;;;;;;-11.85;76.05;101181.51;1769297;80;21291;-78
2021/01/21 03:05:30;;;;;;;102.17;42.75;;;;;;;-11.75;76.10;101176.53;1785337;80;21188;-78
2021/01/21 03:08:39;;;;;;;129.82;47.08;;;;;;;-11.69;76.14;101175.14;1785889;80;21177;-78
2021/01/21 03:11:47;;;;;;;119.87;43.92;;;;;;;-11.70;76.14;101167.25;1785873;80;21502;-78
2021/01/21 03:14:54;;;;;;;133.72;49.85;;;;;;;-11.68;76.26;101166.33;1785594;80;21989;-78
2021/01/21 03:18:03;;;;;;;130.67;46.92;;;;;;;-11.68;76.30;101172.05;1786047;80;21193;-77
2021/01/21 03:21:09;;;;;;;112.08;42.65;;;;;;;-11.70;76.48;101178.68;1785978;80;21149;-78
2021/01/21 03:24:16;;;;;;;128.18;49.98;;;;;;;-11.61;76.69;101178.59;1785837;80;21894;-77
2021/01/21 03:27:24;;;;;;;142.85;49.65;;;;;;;-11.53;76.73;101177.61;1785894;80;21311;-78
2021/01/21 03:30:33;;;;;;;108.63;43.13;;;;;;;-11.51;76.78;101178.05;1785906;80;21775;-77
2021/01/21 03:33:38;;;;;;;110.03;43.05;;;;;;;-11.50;76.90;101174.95;1785771;80;21196;-78
2021/01/21 03:36:44;;;;;;;112.10;45.55;;;;;;;-11.47;77.11;101165.69;1785861;80;21822;-78
2021/01/21 03:39:49;;;;;;;115.35;45.73;;;;;;;-11.39;77.27;101167.77;1785702;80;21177;-78
2021/01/21 03:43:00;;;;;;;102.35;39.18;;;;;;;-11.36;77.41;101170.39;1785807;80;21303;-78
2021/01/21 03:46:16;;;;;;;97.35;39.27;;;;;;;-11.34;77.59;101176.52;1785720;80;21134;-78
2021/01/21 03:49:22;;;;;;;96.92;40.70;;;;;;;-11.25;77.77;101175.09;1785689;80;21195;-78
2021/01/21 03:52:29;;;;;;;88.17;36.33;;;;;;;-11.17;77.83;101169.27;1785735;80;21279;-78
2021/01/21 03:55:37;;;;;;;95.92;38.98;;;;;;;-11.12;77.86;101172.73;1785835;80;21338;-78
2021/01/21 03:58:42;;;;;;;100.18;37.93;;;;;;;-11.02;78.01;101180.09;1785797;80;21165;-78
2021/01/21 04:01:48;;;;;;;100.47;42.75;;;;;;;-10.90;78.12;101173.80;1785869;80;21157;-78
2021/01/21 04:04:56;;;;;;;114.30;42.55;;;;;;;-10.86;78.05;101179.47;1785743;80;21197;-78
2021/01/21 04:08:02;;;;;;;108.52;43.00;;;;;;;-10.82;78.26;101167.52;1776412;80;21894;-78
2021/01/21 04:11:09;;;;;;;100.95;40.17;;;;;;;-10.83;78.28;101175.44;1772000;81;21703;-78
2021/01/21 04:14:17;;;;;;;88.72;36.63;;;;;;;-10.78;78.51;101173.61;1771976;81;21827;-78
2021/01/21 04:17:23;;;;;;;90.45;34.18;;;;;;;-10.69;78.61;101173.48;1772109;81;21815;-78
2021/01/21 04:20:27;;;;;;;84.37;38.75;;;;;;;-10.62;78.73;101163.71;1772061;81;21755;-78
2021/01/21 04:23:35;;;;;;;85.75;35.65;;;;;;;-10.55;78.83;101170.64;1771973;81;21276;-78
2021/01/21 04:26:43;;;;;;;76.82;33.70;;;;;;;-10.49;78.92;101168.34;1771894;81;21268;-78
2021/01/21 04:29:51;;;;;;;74.72;33.20;;;;;;;-10.43;79.02;101174.89;1770454;80;21758;-78
2021/01/21 04:32:57;;;;;;;79.10;35.58;;;;;;;-10.41;79.17;101159.86;1771971;81;21292;-78
2021/01/21 04:36:04;;;;;;;81.47;32.73;;;;;;;-10.40;79.29;101162.92;1772096;81;21280;-78
2021/01/21 04:39:11;;;;;;;72.58;31.30;;;;;;;-10.34;79.48;101165.49;1772043;81;21857;-78
2021/01/21 04:42:16;;;;;;;84.42;33.73;;;;;;;-10.29;79.62;101157.03;1772052;81;21831;-78
2021/01/21 04:45:25;;;;;;;73.62;31.17;;;;;;;-10.27;79.80;101163.16;1771878;81;21253;-78
2021/01/21 04:48:30;;;;;;;77.53;31.33;;;;;;;-10.22;79.96;101173.18;1757266;81;21189;-78
2021/01/21 04:51:36;;;;;;;77.87;31.30;;;;;;;-10.17;80.08;101179.27;1741656;81;21150;-78
2021/01/21 04:54:49;;;;;;;83.27;31.27;;;;;;;-10.11;80.20;101180.52;1761716;81;21276;-78
2021/01/21 04:58:29;;;;;;;84.47;34.18;;;;;;;-10.03;80.19;101177.72;1772071;81;21296;-78
2021/01/21 05:01:37;;;;;;;76.07;35.13;;;;;;;-10.00;80.23;101175.48;1772142;81;21821;-78
2021/01/21 05:04:44;;;;;;;80.50;33.55;;;;;;;-10.00;80.36;101188.27;1759440;81;21267;-78
2021/01/21 05:08:00;;;;;;;74.32;34.90;;;;;;;-9.97;80.51;101182.03;1742363;81;21305;-78
2021/01/21 05:11:09;;;;;;;76.70;33.58;;;;;;;-9.97;80.52;101180.30;1740694;82;21142;-78
2021/01/21 05:14:24;;;;;;;88.85;40.60;;;;;;;-9.94;80.62;101172.73;1747540;81;21236;-78
2021/01/21 05:17:43;;;;;;;80.75;34.53;;;;;;;-9.88;80.69;101200.41;1732591;80;21308;-78
2021/01/21 05:21:06;;;;;;;84.62;34.15;;;;;;;-9.78;80.70;101174.23;1772060;81;21260;-78
2021/01/21 05:24:18;;;;;;;68.07;31.65;;;;;;;-9.80;80.61;101196.73;1739693;80;21284;-78
2021/01/21 05:27:34;;;;;;;82.85;32.73;;;;;;;-9.71;80.79;101194.84;1741293;81;21296;-78
2021/01/21 05:30:46;;;;;;;72.67;31.77;;;;;;;-9.62;80.71;101182.30;1714632;82;21315;-78
2021/01/21 05:33:52;;;;;;;80.87;35.05;;;;;;;-9.61;80.74;101174.78;1714349;82;21208;-78
2021/01/21 05:37:06;;;;;;;82.05;31.15;;;;;;;-9.60;80.87;101183.14;1739805;81;21816;-78
2021/01/21 05:40:16;;;;;;;79.87;36.60;;;;;;;-9.56;81.01;101186.61;1733756;81;21304;-78
2021/01/21 05:43:23;;;;;;;84.07;32.83;;;;;;;-9.53;81.16;101183.46;1761620;81;21330;-78
2021/01/21 05:46:31;;;;;;;71.00;31.40;;;;;;;-9.46;81.33;101200.55;1753894;81;21795;-78
2021/01/21 05:49:38;;;;;;;76.87;33.80;;;;;;;-9.36;81.36;101194.17;1758318;81;21245;-78
2021/01/21 05:52:43;;;;;;;72.00;30.32;;;;;;;-9.27;81.35;101190.93;1742073;81;21299;-78
2021/01/21 05:55:52;;;;;;;72.87;30.23;;;;;;;-9.16;81.31;101200.44;1762860;79;21194;-78
2021/01/21 05:59:02;;;;;;;69.53;30.50;;;;;;;-9.04;81.39;101203.70;1729796;82;21319;-78
2021/01/21 06:02:07;;;;;;;;;;;;;;;-8.94;81.22;101206.16;1736370;81;21857;-78
2021/01/21 06:05:18;;;;;;;56.92;25.90;;;;;;;-8.88;81.22;101211.36;1760620;81;20254;-78
2021/01/21 06:08:26;;;;;;;52.95;25.88;;;;;;;-8.83;81.37;101202.40;1735372;81;21323;-78
2021/01/21 06:11:33;;;;;;;63.02;25.72;;;;;;;-8.78;81.51;101200.98;1723157;82;21192;-78
2021/01/21 06:14:37;;;;;;;53.50;24.23;;;;;;;-8.69;81.69;101204.76;1688496;84;21247;-78
2021/01/21 06:17:43;;;;;;;46.42;23.25;;;;;;;-8.59;81.75;101212.06;1694580;82;21861;-78
2021/01/21 06:20:51;;;;;;;50.43;23.57;;;;;;;-8.46;81.78;101210.02;1703838;82;21193;-78
2021/01/21 06:24:11;;;;;;;52.05;22.42;;;;;;;-8.36;81.73;101203.59;1701713;82;21596;-78
2021/01/21 06:27:12;;;;;;;49.95;22.93;;;;;;;-8.26;81.67;101215.25;1713221;82;21338;-78
2021/01/21 06:30:24;;;;;;;52.45;24.40;;;;;;;-8.17;81.51;101219.47;1706078;82;21820;-78
2021/01/21 06:33:33;;;;;;;51.85;23.60;;;;;;;-8.10;81.37;101201.14;1716727;82;21203;-78
2021/01/21 06:36:38;;;;;;;45.60;20.08;;;;;;;-8.03;81.25;101203.22;1702726;82;21295;-78
2021/01/21 06:40:17;;;;;;;53.98;24.25;;;;;;;-7.95;81.17;101210.98;1691481;83;21362;-79
2021/01/21 06:43:41;;;;;;;51.77;24.77;;;;;;;-7.95;81.06;101202.59;1693325;83;21339;-78
2021/01/21 06:46:47;;;;;;;56.05;24.10;;;;;;;-7.91;81.12;101217.97;1707505;83;21904;-78
2021/01/21 06:49:54;;;;;;;58.13;24.20;;;;;;;-7.80;81.10;101209.30;1699734;83;21304;-78
2021/01/21 06:52:59;;;;;;;50.00;24.77;;;;;;;-7.74;80.97;101211.33;1694939;83;21770;-78
2021/01/21 06:56:04;;;;;;;61.65;27.37;;;;;;;-7.72;80.82;101204.18;1688085;83;21157;-78
2021/01/21 06:59:10;;;;;;;59.38;26.12;;;;;;;-7.67;80.88;101213.36;1696620;83;21351;-78
2021/01/21 07:02:16;;;;;;;59.42;25.72;;;;;;;-7.63;80.86;101204.41;1694646;83;21829;-79
2021/01/21 07:05:28;;;;;;;58.52;25.88;;;;;;;-7.61;80.91;101208.38;1698411;83;21294;-79
2021/01/21 07:08:33;;;;;;;50.75;23.65;;;;;;;-7.59;80.92;101202.09;1698259;83;21900;-78
2021/01/21 07:11:44;;;;;;;66.12;28.80;;;;;;;-7.54;81.02;101205.95;1710832;82;21714;-78
2021/01/21 07:14:51;;;;;;;;;;;;;;;-7.49;81.05;101214.22;1702403;82;21284;-78
2021/01/21 07:17:57;;;;;;;65.62;26.80;;;;;;;-7.37;81.08;101213.50;1728426;82;20273;-79
2021/01/21 07:21:16;;;;;;;60.43;24.92;;;;;;;-7.33;80.89;101215.16;1723832;82;21304;-79
2021/01/21 07:24:22;;;;;;;47.10;24.12;;;;;;;-7.31;80.80;101215.98;1720862;82;21339;-79
2021/01/21 07:27:29;;;;;;;53.30;25.35;;;;;;;-7.24;80.79;101216.25;1704771;82;21814;-78
2021/01/21 07:30:36;;;;;;;65.92;27.98;;;;;;;-7.19;80.73;101214.80;1702670;82;21283;-78
2021/01/21 07:33:40;;;;;;;58.23;27.00;;;;;;;-7.15;80.62;101211.11;1717630;82;21315;-78
2021/01/21 07:36:46;;;;;;;63.00;28.35;;;;;;;-7.10;80.64;101215.88;1724162;82;21754;-78
2021/01/21 07:40:11;;;;;;;57.30;28.73;;;;;;;-7.02;80.60;101220.03;1717640;82;21311;-79
2021/01/21 07:43:18;;;;;;;54.48;24.47;;;;;;;-6.96;80.51;101206.59;1723795;82;21283;-78
2021/01/21 07:46:33;;;;;;;58.00;27.52;;;;;;;-6.90;80.47;101202.87;1722149;82;21284;-79
2021/01/21 07:49:39;;;;;;;55.65;25.85;;;;;;;-6.81;80.34;101191.09;1722986;82;21300;-78
2021/01/21 07:52:50;;;;;;;59.05;28.40;;;;;;;-6.75;80.22;101189.58;1718587;82;21805;-79
2021/01/21 07:55:56;;;;;;;56.65;27.22;;;;;;;-6.76;80.13;101183.84;1721813;81;21817;-78
2021/01/21 07:59:09;;;;;;;59.53;27.77;;;;;;;-6.77;80.27;101185.64;1720092;82;21840;-78
2021/01/21 08:02:15;;;;;;;55.17;26.80;;;;;;;-6.76;80.41;101187.84;1689922;84;21267;-78
2021/01/21 08:05:20;;;;;;;62.48;27.60;;;;;;;-6.70;80.54;101184.98;1722730;82;21247;-78
2021/01/21 08:08:29;;;;;;;65.17;29.25;;;;;;;-6.58;80.49;101193.95;1720019;82;21259;-78
2021/01/21 08:11:35;;;;;;;66.53;29.48;;;;;;;-6.52;80.33;101193.75;1707080;82;21169;-79
2021/01/21 08:14:40;;;;;;;63.38;26.97;;;;;;;-6.52;80.27;101187.56;1747166;81;21355;-78
2021/01/21 08:17:45;;;;;;;60.50;26.60;;;;;;;-6.48;80.43;101182.09;1755156;79;21271;-78
2021/01/21 08:20:52;;;;;;;56.80;26.10;;;;;;;-6.38;80.47;101189.34;1757369;81;21238;-78
2021/01/21 08:24:06;;;;;;;55.12;24.95;;;;;;;-6.27;80.47;101187.66;1751505;79;21519;-78
2021/01/21 08:27:13;;;;;;;61.60;27.45;;;;;;;-6.15;80.28;101189.95;1757073;79;21834;-78
2021/01/21 08:30:29;;;;;;;50.30;26.33;;;;;;;-6.01;80.11;101186.84;1750339;79;21303;-78
2021/01/21 08:33:38;;;;;;;52.13;25.82;;;;;;;-5.89;79.96;101188.18;1751583;79;21842;-79
2021/01/21 08:36:43;;;;;;;53.50;26.50;;;;;;;-5.80;79.74;101181.22;1752131;79;21280;-78
2021/01/21 08:39:49;;;;;;;53.83;24.18;;;;;;;-5.67;79.55;101174.55;1713540;81;21267;-78
2021/01/21 08:42:56;;;;;;;47.13;24.05;;;;;;;-5.52;79.44;101183.34;1750678;81;21687;-78
2021/01/21 08:46:02;;;;;;;50.58;26.65;;;;;;;-5.36;78.95;101177.04;1750236;79;21719;-78
2021/01/21 08:49:17;;;;;;;51.73;24.30;;;;;;;-5.29;78.55;101169.21;1754448;79;21142;-78
2021/01/21 08:52:22;;;;;;;55.15;25.65;;;;;;;-5.12;78.44;101173.95;1753663;81;21325;-78
2021/01/21 08:55:27;;;;;;;53.78;26.87;;;;;;;-5.02;78.09;101175.34;1762698;79;21287;-78
2021/01/21 08:58:41;;;;;;;54.85;26.40;;;;;;;-4.92;77.77;101162.53;1755539;79;21254;-79
2021/01/21 09:01:50;;;;;;;49.48;24.25;;;;;;;-4.82;77.54;101163.06;1753086;79;21828;-79
2021/01/21 09:04:59;;;;;;;48.38;24.45;;;;;;;-4.79;77.25;101166.95;1751963;81;21647;-79
2021/01/21 09:08:13;;;;;;;51.45;23.52;;;;;;;-4.78;77.17;101168.69;1719542;81;21687;-79
2021/01/21 09:11:40;;;;;;;45.92;23.25;;;;;;;-4.74;77.21;101162.31;1747177;81;21149;-79
2021/01/21 09:14:44;;;;;;;49.27;24.70;;;;;;;-4.68;77.15;101149.59;1766577;80;21663;-78
2021/01/21 09:17:50;;;;;;;47.73;24.37;;;;;;;-4.60;76.89;101150.64;1772825;80;21416;-79
2021/01/21 09:20:57;;;;;;;44.20;22.32;;;;;;;-4.50;76.74;101152.02;1710081;82;21262;-78
2021/01/21 09:24:15;;;;;;;43.83;22.30;;;;;;;-4.42;76.29;101157.94;1717390;81;21290;-78
2021/01/21 09:27:24;;;;;;;49.40;25.17;;;;;;;-4.34;76.31;101151.40;1714481;81;22008;-78
2021/01/21 09:30:32;;;;;;;36.60;19.70;;;;;;;-4.28;76.19;101151.14;1724778;81;21144;-78
2021/01/21 09:33:37;;;;;;;53.00;25.15;;;;;;;-4.26;75.92;101141.28;1733713;81;21349;-78
2021/01/21 09:36:42;;;;;;;46.20;23.50;;;;;;;-4.24;75.51;101137.60;1729432;81;21216;-78
2021/01/21 09:39:48;;;;;;;46.88;24.18;;;;;;;-4.15;75.35;101141.70;1727103;81;21287;-78
2021/01/21 09:42:54;;;;;;;45.80;22.52;;;;;;;-4.14;74.83;101132.75;1729868;81;21314;-78
2021/01/21 09:46:01;;;;;;;48.75;24.95;;;;;;;-4.15;74.78;101128.34;1720185;81;21232;-78
2021/01/21 09:49:06;;;;;;;54.75;26.73;;;;;;;-4.19;74.75;101125.39;1727197;81;21326;-81
2021/01/21 09:52:12;;;;;;;44.53;23.25;;;;;;;-4.09;75.08;101136.57;1723429;81;21351;-81
2021/01/21 09:55:19;;;;;;;45.17;24.47;;;;;;;-4.11;74.38;101118.80;1720190;82;21298;-81
2021/01/21 09:58:24;;;;;;;45.38;23.10;;;;;;;-4.30;74.43;101123.17;1728603;80;21247;-81
2021/01/21 10:01:30;;;;;;;49.35;25.20;;;;;;;-4.41;75.00;101112.92;1726488;82;21287;-81
2021/01/21 10:04:41;;;;;;;52.58;25.02;;;;;;;-4.51;75.17;101115.56;1723396;81;21330;-81
2021/01/21 10:07:47;;;;;;;51.23;25.20;;;;;;;-4.55;75.58;101115.28;1727144;81;21884;-81
2021/01/21 10:10:53;;;;;;;50.55;23.98;;;;;;;-4.50;75.77;101112.42;1728845;81;21298;-81
2021/01/21 10:13:59;;;;;;;56.08;27.05;;;;;;;-4.50;75.35;101103.95;1716325;82;21296;-82
2021/01/21 10:17:10;;;;;;;53.05;24.47;;;;;;;-4.44;75.57;101106.83;1685143;84;21817;-82
2021/01/21 10:20:15;;;;;;;59.42;25.32;;;;;;;-4.31;75.60;101105.88;1682920;83;21181;-80
2021/01/21 10:23:21;;;;;;;47.75;25.00;;;;;;;-4.21;75.40;101093.88;1714786;82;21321;-81
2021/01/21 10:26:26;;;;;;;48.90;23.12;;;;;;;-4.11;75.14;101095.23;1700962;82;21268;-81
2021/01/21 10:29:31;;;;;;;50.20;25.00;;;;;;;-4.13;74.55;101091.30;1699872;82;21782;-81
2021/01/21 10:32:36;;;;;;;44.35;22.60;;;;;;;-4.12;74.47;101094.83;1701074;82;21303;-78
2021/01/21 10:35:42;;;;;;;52.23;24.55;;;;;;;-4.12;74.25;101089.48;1703850;82;21315;-78
2021/01/21 10:38:47;;;;;;;45.67;23.05;;;;;;;-4.11;73.86;101089.88;1699658;83;21303;-78
2021/01/21 10:41:51;;;;;;;49.83;22.10;;;;;;;-4.13;73.77;101083.28;1695880;82;21303;-78
2021/01/21 10:44:57;;;;;;;43.00;22.17;;;;;;;-4.09;73.62;101083.12;1696572;83;21177;-78
2021/01/21 10:48:03;;;;;;;46.60;23.05;;;;;;;-4.04;73.32;101075.82;1695839;82;21762;-79
2021/01/21 10:51:09;;;;;;;51.63;25.80;;;;;;;-4.07;73.25;101080.81;1704599;83;21730;-78
2021/01/21 10:54:15;;;;;;;50.28;24.72;;;;;;;-4.02;73.57;101085.48;1696476;83;21311;-79
2021/01/21 10:57:22;;;;;;;41.37;22.42;;;;;;;-3.92;73.45;101079.28;1695345;82;22255;-79
2021/01/21 11:00:28;;;;;;;43.80;22.60;;;;;;;-3.93;73.11;101066.39;1699487;82;21315;-79
2021/01/21 11:03:34;;;;;;;46.77;23.18;;;;;;;-3.98;72.84;101066.20;1699731;82;21307;-79
2021/01/21 11:06:40;;;;;;;45.33;22.42;;;;;;;-4.06;72.93;101067.84;1709774;82;21153;-78
2021/01/21 11:09:44;;;;;;;41.33;20.90;;;;;;;-4.05;73.15;101069.58;1702849;82;21575;-79
2021/01/21 11:12:49;;;;;;;44.38;22.65;;;;;;;-4.05;73.38;101062.89;1701984;83;21646;-80
2021/01/21 11:15:55;;;;;;;42.60;21.42;;;;;;;-4.00;73.42;101058.69;1708998;82;21311;-79
2021/01/21 11:19:02;;;;;;;48.10;22.35;;;;;;;-3.96;73.38;101057.63;1714362;82;22672;-78
2021/01/21 11:22:10;;;;;;;48.17;23.22;;;;;;;-3.87;73.48;101047.88;1716074;81;21197;-78
2021/01/21 11:25:17;;;;;;;41.10;21.55;;;;;;;-3.84;73.27;101049.09;1717301;81;21312;-78
2021/01/21 11:28:24;;;;;;;39.70;21.02;;;;;;;-3.84;73.23;101050.90;1714974;82;21275;-79
2021/01/21 11:31:31;;;;;;;42.62;21.62;;;;;;;-3.82;73.34;101041.00;1662437;85;21173;-79
2021/01/21 11:34:37;;;;;;;46.80;22.00;;;;;;;-3.91;73.36;101040.45;1645345;86;21339;-78
2021/01/21 11:37:43;;;;;;;42.15;23.38;;;;;;;-4.03;73.34;101041.47;1675162;85;21534;-78
2021/01/21 11:40:51;;;;;;;42.48;23.10;;;;;;;-4.13;73.78;101038.33;1644919;85;21520;-81
2021/01/21 11:43:56;;;;;;;57.17;26.02;;;;;;;-4.11;74.15;101035.97;1672626;84;21172;-81
2021/01/21 11:47:02;;;;;;;54.08;26.62;;;;;;;-4.05;74.23;101025.95;1671689;85;21864;-81
2021/01/21 11:50:08;;;;;;;50.03;24.47;;;;;;;-4.02;74.44;101021.83;1677483;83;21969;-81
2021/01/21 11:53:13;;;;;;;44.08;23.12;;;;;;;-4.01;74.57;101020.41;1675054;83;21229;-81
2021/01/21 11:56:19;;;;;;;46.33;22.32;;;;;;;-4.03;74.50;101022.30;1668343;84;21265;-81
2021/01/21 11:59:25;;;;;;;50.65;23.30;;;;;;;-4.02;74.61;101029.38;1654853;84;21205;-78
2021/01/21 12:02:30;;;;;;;42.67;22.10;;;;;;;-3.97;74.79;101022.02;1674145;84;21169;-79
2021/01/21 12:05:36;;;;;;;50.35;24.98;;;;;;;-3.94;74.84;101023.70;1646510;85;21363;-77
2021/01/21 12:08:41;;;;;;;53.58;25.82;;;;;;;-3.99;74.85;101013.69;1672089;85;21352;-78
2021/01/21 12:11:46;;;;;;;54.00;27.82;;;;;;;-3.99;75.20;100997.18;1661823;84;21307;-79
2021/01/21 12:14:53;;;;;;;43.63;24.15;;;;;;;-3.93;75.29;101003.58;1664036;84;21322;-78
2021/01/21 12:17:58;;;;;;;46.88;25.60;;;;;;;-3.83;75.34;101008.52;1720265;82;21165;-79
2021/01/21 12:21:05;;;;;;;43.80;22.98;;;;;;;-3.77;75.13;101006.44;1718251;82;21197;-77
2021/01/21 12:24:13;;;;;;;48.35;24.77;;;;;;;-3.76;75.20;101001.98;1711504;82;21290;-78
2021/01/21 12:27:19;;;;;;;51.13;25.15;;;;;;;-3.76;75.21;100996.64;1706902;82;21783;-80
2021/01/21 12:30:26;;;;;;;58.92;25.80;;;;;;;-3.71;75.40;100991.48;1712102;82;21332;-81
2021/01/21 12:33:31;;;;;;;44.10;24.15;;;;;;;-3.72;75.30;100988.38;1704600;82;21313;-81
2021/01/21 12:36:35;;;;;;;56.18;25.23;;;;;;;-3.86;75.40;100982.78;1716801;81;21861;-81
2021/01/21 12:39:41;;;;;;;43.42;23.18;;;;;;;-3.93;75.58;100971.98;1713339;81;21698;-80
2021/01/21 12:42:46;;;;;;;51.55;25.75;;;;;;;-4.01;75.79;100983.00;1719195;81;22005;-81
2021/01/21 12:45:51;;;;;;;46.95;24.70;;;;;;;-4.06;76.11;100985.48;1702539;83;21308;-81
2021/01/21 12:48:57;;;;;;;48.23;24.27;;;;;;;-4.08;76.44;100974.00;1716250;81;21332;-81
2021/01/21 12:52:01;;;;;;;41.13;22.25;;;;;;;-4.02;76.63;100985.75;1713056;83;21766;-81
2021/01/21 12:55:06;;;;;;;56.63;26.48;;;;;;;-3.98;76.67;100976.19;1716413;83;21743;-81
2021/01/21 12:58:12;;;;;;;52.98;25.55;;;;;;;-3.96;76.70;100974.30;1714456;81;21293;-82
2021/01/21 13:01:18;;;;;;;47.27;23.80;;;;;;;-3.92;76.85;100980.39;1710740;81;21884;-82
2021/01/21 13:04:24;;;;;;;44.42;23.40;;;;;;;-3.92;76.97;100977.72;1716903;83;21262;-82
2021/01/21 13:07:30;;;;;;;48.98;25.57;;;;;;;-3.95;77.08;100986.76;1708011;83;21145;-85
2021/01/21 13:10:35;;;;;;;51.18;23.73;;;;;;;-3.93;77.21;100996.03;1715436;83;21170;-81
2021/01/21 13:13:40;;;;;;;52.90;24.87;;;;;;;-3.86;77.15;100985.45;1712043;81;21806;-79
2021/01/21 13:16:46;;;;;;;45.92;21.75;;;;;;;-3.91;77.02;100975.44;1710912;83;21295;-80
2021/01/21 13:19:51;;;;;;;50.85;26.48;;;;;;;-4.04;77.08;100979.14;1709181;82;21659;-82
2021/01/21 13:22:58;;;;;;;46.63;23.87;;;;;;;-4.18;77.23;100981.55;1706325;82;21188;-80
2021/01/21 13:26:03;;;;;;;42.00;21.30;;;;;;;-4.28;77.57;100987.76;1707099;82;21149;-84
2021/01/21 13:29:08;;;;;;;40.70;20.30;;;;;;;-4.30;77.76;100996.76;1703696;83;21289;-82
2021/01/21 13:32:14;;;;;;;54.20;26.87;;;;;;;-4.30;77.87;100989.61;1702743;82;21303;-84
2021/01/21 13:35:20;;;;;;;50.25;24.72;;;;;;;-4.34;77.94;100987.13;1755557;81;22191;-84
2021/01/21 13:38:24;;;;;;;52.08;25.75;;;;;;;-4.40;78.02;100985.13;1761030;79;21824;-83
2021/01/21 13:41:32;;;;;;;52.43;26.87;;;;;;;-4.51;78.24;100987.39;1754422;79;21719;-82
2021/01/21 13:44:38;;;;;;;51.42;23.12;;;;;;;-4.58;78.61;100982.36;1753210;79;21311;-82
2021/01/21 13:47:43;;;;;;;54.95;26.50;;;;;;;-4.64;78.90;100985.69;1753090;81;21699;-82
2021/01/21 13:50:49;;;;;;;49.75;24.25;;;;;;;-4.73;78.97;100984.73;1749803;81;21239;-83
2021/01/21 13:53:54;;;;;;;46.23;24.63;;;;;;;-4.83;79.09;100981.17;1755512;79;21265;-83
2021/01/21 13:57:01;;;;;;;58.78;25.20;;;;;;;-4.92;79.28;100985.95;1753804;81;21304;-83
2021/01/21 14:00:08;;;;;;;43.70;22.30;;;;;;;-4.98;79.60;100975.53;1755459;81;21612;-83
2021/01/21 14:03:14;;;;;;;51.80;23.83;;;;;;;-5.06;79.91;100969.63;1749180;79;21249;-82
2021/01/21 14:06:20;;;;;;;51.37;26.33;;;;;;;-5.13;80.29;100968.11;1754634;79;21288;-83
2021/01/21 14:09:25;;;;;;;51.13;25.60;;;;;;;-5.17;80.57;100962.52;1751371;81;21300;-82